Hlavní strana
METAR-TAF:

METAR-TAF

Letiště :

Ørsta-Volda, Norsko

zeměpisná šířka: 62-11N, zeměpisná délka: 006-04E, výška: 7 m

Aktuální stav počasí

Zpráva byla vytvořena před 26 minutami, v 06:20 UTC
Západojihozápadní vítr 4 kt
Teplota 7°C
Vlhkost vzduchu 76%
Tlak 1005 hPa
Viditelnost 10 km a více
Oblačno až skoro zataženo ve výšce 4400 ft

METAR: ENOV 130620Z 25004KT 9999 BKN044 07/03 Q1005 RMK WIND 2175FT 14020KT

Čas: 07:46 (06:46 UTC)


TAF: chybějící

Stav a předpovědi počasí z více než 4 000 letišť (zprávy METAR a TAF).

Červené a žluté tečky na mapě představují dostupné meteorologické stanice.

Když kurzor umístíte na tečku, zobrazí se název stanice.

Pak kliknutím zobrazíte stav a předpověď počasí.

Chcete-li změnit mapu, kliknutím na zelené tlačítko se znaménkem +mapu přiblížíte, kliknutím na zelené tlačítko se znaménkem – mapu oddálíte a kliknutím na zelené šipky přejdete na sousední mapy.


METAR-TAF: